Chiang Mai, Thailand

2:49 PM ICT on August 01, 2014 (GMT +0700)
ThaiWx Station (ICHANGWA3) Elev 1007 ft | 18.77 °N, 98.97 °E | Change Station

Current weather conditions updated 4 minutes ago

Scattered Clouds
Scattered Clouds
91.2 °F
Feels Like 101 °F
N
2.7
Wind Variable Wind from SSW
Gusts 9.6 mph

Today is forecast to be nearly the same temperature as yesterday. Showers and thunderstorms.

Today
High -- | Low -- °F
--% Chance of Precip.
Yesterday
High -- | Low -- °F
Precip. -- in
6:01 AM 6:59 PM
Waxing Crescent, 24% visible
Pressure 29.68 in
Visibility 6.2 miles
Clouds Scattered Clouds 3500 ft
Heat Index 101 °F
Dew Point 74 °F
Humidity 58%
Rainfall 0.00 in
Snow Depth Not available.
UV 13 out of 12
Pollen Not available.
Air Quality Not available.
Flu Activity Not available.
METAR VTCC 010700Z 19007KT 9999 SCT035 32/21 Q1005 A2969 NOSIG

More Conditions Fewer Conditions

Pressure 29.68 in
Visibility 6.2 miles
Clouds Scattered Clouds 3500 ft
Heat Index 101 °F
Dew Point 74 °F
Humidity 58%
Rainfall 0.00 in
Snow Depth Not available.
UV 13 out of 12
Pollen Not available.
Air Quality Not available.
Flu Activity Not available.
METAR VTCC 010700Z 19007KT 9999 SCT035 32/21 Q1005 A2969 NOSIG

More Conditions Fewer Conditions

10-Day Weather Forecast

Almanac

Astronomy

Aug. 01, 2014 Rise Set
Actual Time 6:01 AM ICT 6:59 PM ICT
Civil Twilight 5:37 AM ICT 7:22 PM ICT
Nautical Twilight 5:10 AM ICT 7:50 PM ICT
Astronomical Twilight 4:42 AM ICT 8:18 PM ICT
Moon 10:08 AM ICT 10:17 PM ICT
Length of Visible Light 13h 44m
Length of Day
12h 58m
Tomorrow will be 0m 47s shorter.
Waxing Crescent, 24% of the Moon is Illuminated
Today
Waxing Crescent
Aug 3
First Quarter
Aug 10
Full
Aug 17
Last Quarter
Aug 25
New

Yesterday's Extremes

Country Highs Country Lows

Community

WunderPhotos

Upload Photos

1,739,522 photos uploaded!

Nearby

Snow Depth

Not available.

Earthquake Activity

City Distance Mag. Time & Date
No recent earthquake activity has been reported nearby.
Minimum magnitude displayed is 2.5.

Coastal Water Temperatures

Place Temperature
No Stations Reporting

Nearby Weather Stations

Station Location Temp. Heat Index Dew Point Humidity Wind Precip. Elev Updated Type
ThaiWx Station, Chiang Mai 91.2 °F 101 °F 74 °F 58% SSW  at  2.7 mph 0.00 in / hr 1007 ft 2:45 PM ICT Normal
Station ThaiWx, Chiang Mai 97.2 °F 113 °F 77 °F 53% South  at  1.8 mph 0.00 in / hr 1007 ft 2:47 PM ICT Normal
Nantawan Villiage, Chiang Mai 94.8 °F 101 °F 70 °F 45% SSE  at  4.3 mph 0.00 in / hr 1063 ft 2:49 PM ICT Rapid Fire

Show More Stations Show Fewer Stations